<?xml version="1.0" encoding="UTF-8" standalone="no" ?>
<gpx xmlns="http://www.topografix.com/GPX/1/1" xmlns:xsi="http://www.w3.org/2001/XMLSchema-instance" xsi:schemaLocation="http://www.topografix.com/GPX/1/1 http://www.topografix.com/GPX/1/1/gpx.xsd" version="1.1" creator="VisuGPX - https://www.visugpx.com">
  <metadata>
    <name>Edirne-Sarajevo</name>
  </metadata>
  <trk>
    <name><![CDATA[Tour d'Europe: étape 700]]></name>
    <extensions>
      <line xmlns="http://www.topografix.com/GPX/gpx_style/0/2">
        <color>FF00FF</color>
        <width>4</width>
      </line>
    </extensions>
    <trkseg>
      <trkpt lat="42.2837" lon="18.83812">
        <ele>94.793916</ele>
        <time>2022-05-29T08:04:44.764Z</time>
      </trkpt>
      <trkpt lat="42.28359" lon="18.83753">
        <ele>85.454613</ele>
        <time>2022-05-29T08:26:50.734Z</time>
      </trkpt>
      <trkpt lat="42.28522" lon="18.83724">
        <ele>69.358499</ele>
        <time>2022-05-29T08:28:04.765Z</time>
      </trkpt>
      <trkpt lat="42.28408" lon="18.83514">
        <ele>55.427149</ele>
        <time>2022-05-29T08:29:56.730Z</time>
      </trkpt>
      <trkpt lat="42.28236" lon="18.83403">
        <ele>71.849131</ele>
        <time>2022-05-29T08:31:51.726Z</time>
      </trkpt>
      <trkpt lat="42.28051" lon="18.83387">
        <ele>83.667183</ele>
        <time>2022-05-29T08:34:00.748Z</time>
      </trkpt>
      <trkpt lat="42.27897" lon="18.83322">
        <ele>98.659478</ele>
        <time>2022-05-29T08:36:16.720Z</time>
      </trkpt>
      <trkpt lat="42.2777" lon="18.8321">
        <ele>110.404964</ele>
        <time>2022-05-29T08:38:14.741Z</time>
      </trkpt>
      <trkpt lat="42.27783" lon="18.82956">
        <ele>123.745416</ele>
        <time>2022-05-29T08:40:14.739Z</time>
      </trkpt>
      <trkpt lat="42.27793" lon="18.8268">
        <ele>132.793095</ele>
        <time>2022-05-29T08:42:08.747Z</time>
      </trkpt>
      <trkpt lat="42.28128" lon="18.82002">
        <ele>113.881633</ele>
        <time>2022-05-29T08:45:10.733Z</time>
      </trkpt>
      <trkpt lat="42.28282" lon="18.81829">
        <ele>135.27738</ele>
        <time>2022-05-29T08:46:14.744Z</time>
      </trkpt>
      <trkpt lat="42.28404" lon="18.81624">
        <ele>135.647359</ele>
        <time>2022-05-29T08:47:19.742Z</time>
      </trkpt>
      <trkpt lat="42.28592" lon="18.81409">
        <ele>151.213881</ele>
        <time>2022-05-29T08:50:40.761Z</time>
      </trkpt>
      <trkpt lat="42.28583" lon="18.81121">
        <ele>153.086145</ele>
        <time>2022-05-29T08:51:52.738Z</time>
      </trkpt>
      <trkpt lat="42.28486" lon="18.80853">
        <ele>135.747836</ele>
        <time>2022-05-29T08:52:16.740Z</time>
      </trkpt>
      <trkpt lat="42.28553" lon="18.80576">
        <ele>114.165338</ele>
        <time>2022-05-29T08:52:38.769Z</time>
      </trkpt>
      <trkpt lat="42.28763" lon="18.80569">
        <ele>95.877633</ele>
        <time>2022-05-29T08:52:58.727Z</time>
      </trkpt>
      <trkpt lat="42.28966" lon="18.80725">
        <ele>69.013961</ele>
        <time>2022-05-29T08:53:18.739Z</time>
      </trkpt>
      <trkpt lat="42.29202" lon="18.8073">
        <ele>51.715993</ele>
        <time>2022-05-29T08:53:39.730Z</time>
      </trkpt>
      <trkpt lat="42.29445" lon="18.80693">
        <ele>48.98501</ele>
        <time>2022-05-29T08:54:08.780Z</time>
      </trkpt>
      <trkpt lat="42.29666" lon="18.80725">
        <ele>52.370809</ele>
        <time>2022-05-29T08:54:59.735Z</time>
      </trkpt>
      <trkpt lat="42.29885" lon="18.80726">
        <ele>56.315421</ele>
        <time>2022-05-29T08:56:02.728Z</time>
      </trkpt>
      <trkpt lat="42.30098" lon="18.80688">
        <ele>60.88499</ele>
        <time>2022-05-29T08:57:02.727Z</time>
      </trkpt>
      <trkpt lat="42.30309" lon="18.80639">
        <ele>64.629351</ele>
        <time>2022-05-29T08:58:02.745Z</time>
      </trkpt>
      <trkpt lat="42.30511" lon="18.80571">
        <ele>67.12614</ele>
        <time>2022-05-29T08:59:02.728Z</time>
      </trkpt>
      <trkpt lat="42.30713" lon="18.80408">
        <ele>68.396819</ele>
        <time>2022-05-29T09:00:05.748Z</time>
      </trkpt>
      <trkpt lat="42.30838" lon="18.80194">
        <ele>67.331093</ele>
        <time>2022-05-29T09:00:46.757Z</time>
      </trkpt>
      <trkpt lat="42.30917" lon="18.7992">
        <ele>63.300245</ele>
        <time>2022-05-29T09:01:26.743Z</time>
      </trkpt>
      <trkpt lat="42.30993" lon="18.79587">
        <ele>59.039774</ele>
        <time>2022-05-29T09:02:08.753Z</time>
      </trkpt>
      <trkpt lat="42.31103" lon="18.79312">
        <ele>60.320022</ele>
        <time>2022-05-29T09:02:48.765Z</time>
      </trkpt>
      <trkpt lat="42.31294" lon="18.7916">
        <ele>60.733703</ele>
        <time>2022-05-29T09:03:28.764Z</time>
      </trkpt>
      <trkpt lat="42.31478" lon="18.79048">
        <ele>57.954368</ele>
        <time>2022-05-29T09:04:11.727Z</time>
      </trkpt>
      <trkpt lat="42.31665" lon="18.78894">
        <ele>57.255778</ele>
        <time>2022-05-29T09:04:59.745Z</time>
      </trkpt>
      <trkpt lat="42.3187" lon="18.78715">
        <ele>60.110126</ele>
        <time>2022-05-29T09:05:55.764Z</time>
      </trkpt>
      <trkpt lat="42.32068" lon="18.78548">
        <ele>63.101155</ele>
        <time>2022-05-29T09:06:49.738Z</time>
      </trkpt>
      <trkpt lat="42.32257" lon="18.7831">
        <ele>67.9203</ele>
        <time>2022-05-29T09:07:52.746Z</time>
      </trkpt>
      <trkpt lat="42.32437" lon="18.78129">
        <ele>68.36076</ele>
        <time>2022-05-29T09:08:52.732Z</time>
      </trkpt>
      <trkpt lat="42.32616" lon="18.7797">
        <ele>72.88974</ele>
        <time>2022-05-29T09:09:52.739Z</time>
      </trkpt>
      <trkpt lat="42.3282" lon="18.77773">
        <ele>73.420494</ele>
        <time>2022-05-29T09:10:55.750Z</time>
      </trkpt>
      <trkpt lat="42.32996" lon="18.77574">
        <ele>75.070139</ele>
        <time>2022-05-29T09:11:55.747Z</time>
      </trkpt>
      <trkpt lat="42.33176" lon="18.77379">
        <ele>73.355046</ele>
        <time>2022-05-29T09:12:55.755Z</time>
      </trkpt>
      <trkpt lat="42.33388" lon="18.77267">
        <ele>76.479267</ele>
        <time>2022-05-29T09:13:58.739Z</time>
      </trkpt>
      <trkpt lat="42.33589" lon="18.77245">
        <ele>79.82316</ele>
        <time>2022-05-29T09:15:01.734Z</time>
      </trkpt>
      <trkpt lat="42.33794" lon="18.77217">
        <ele>85.350846</ele>
        <time>2022-05-29T09:16:14.752Z</time>
      </trkpt>
      <trkpt lat="42.34016" lon="18.7713">
        <ele>92.763072</ele>
        <time>2022-05-29T09:17:36.761Z</time>
      </trkpt>
      <trkpt lat="42.34217" lon="18.77022">
        <ele>95.007556</ele>
        <time>2022-05-29T09:18:56.743Z</time>
      </trkpt>
      <trkpt lat="42.34414" lon="18.76936">
        <ele>99.48214</ele>
        <time>2022-05-29T09:20:25.738Z</time>
      </trkpt>
      <trkpt lat="42.34616" lon="18.76897">
        <ele>107.349495</ele>
        <time>2022-05-29T09:22:09.739Z</time>
      </trkpt>
      <trkpt lat="42.34817" lon="18.76827">
        <ele>114.489278</ele>
        <time>2022-05-29T09:23:58.780Z</time>
      </trkpt>
      <trkpt lat="42.34996" lon="18.76714">
        <ele>121.791902</ele>
        <time>2022-05-29T09:25:39.751Z</time>
      </trkpt>
      <trkpt lat="42.35166" lon="18.76554">
        <ele>124.694795</ele>
        <time>2022-05-29T09:27:08.750Z</time>
      </trkpt>
      <trkpt lat="42.35337" lon="18.76376">
        <ele>123.917166</ele>
        <time>2022-05-29T09:28:15.737Z</time>
      </trkpt>
      <trkpt lat="42.35533" lon="18.76226">
        <ele>123.127534</ele>
        <time>2022-05-29T09:29:04.728Z</time>
      </trkpt>
      <trkpt lat="42.35815" lon="18.76112">
        <ele>116.020726</ele>
        <time>2022-05-29T09:29:44.735Z</time>
      </trkpt>
      <trkpt lat="42.36077" lon="18.75982">
        <ele>103.442943</ele>
        <time>2022-05-29T09:30:16.726Z</time>
      </trkpt>
      <trkpt lat="42.36233" lon="18.75823">
        <ele>97.193958</ele>
        <time>2022-05-29T09:30:37.749Z</time>
      </trkpt>
      <trkpt lat="42.3641" lon="18.75702">
        <ele>91.031124</ele>
        <time>2022-05-29T09:30:57.768Z</time>
      </trkpt>
      <trkpt lat="42.36594" lon="18.75561">
        <ele>85.940393</ele>
        <time>2022-05-29T09:31:20.743Z</time>
      </trkpt>
      <trkpt lat="42.36786" lon="18.75461">
        <ele>81.836639</ele>
        <time>2022-05-29T09:31:41.730Z</time>
      </trkpt>
      <trkpt lat="42.36977" lon="18.75405">
        <ele>76.907121</ele>
        <time>2022-05-29T09:32:01.745Z</time>
      </trkpt>
      <trkpt lat="42.37193" lon="18.75338">
        <ele>71.846206</ele>
        <time>2022-05-29T09:32:25.736Z</time>
      </trkpt>
      <trkpt lat="42.37449" lon="18.75234">
        <ele>70.811184</ele>
        <time>2022-05-29T09:33:07.767Z</time>
      </trkpt>
      <trkpt lat="42.37666" lon="18.7512">
        <ele>70.756894</ele>
        <time>2022-05-29T09:33:47.727Z</time>
      </trkpt>
      <trkpt lat="42.37928" lon="18.74948">
        <ele>65.026767</ele>
        <time>2022-05-29T09:34:27.749Z</time>
      </trkpt>
      <trkpt lat="42.38207" lon="18.74712">
        <ele>62.062777</ele>
        <time>2022-05-29T09:35:09.743Z</time>
      </trkpt>
      <trkpt lat="42.3846" lon="18.7446">
        <ele>57.244343</ele>
        <time>2022-05-29T09:35:49.733Z</time>
      </trkpt>
      <trkpt lat="42.38714" lon="18.74202">
        <ele>51.641621</ele>
        <time>2022-05-29T09:36:29.747Z</time>
      </trkpt>
      <trkpt lat="42.38932" lon="18.74">
        <ele>50.901243</ele>
        <time>2022-05-29T09:37:09.739Z</time>
      </trkpt>
      <trkpt lat="42.39114" lon="18.73843">
        <ele>50.44241</ele>
        <time>2022-05-29T09:37:51.748Z</time>
      </trkpt>
      <trkpt lat="42.39289" lon="18.73715">
        <ele>51.302452</ele>
        <time>2022-05-29T09:38:31.730Z</time>
      </trkpt>
      <trkpt lat="42.39496" lon="18.73557">
        <ele>49.017282</ele>
        <time>2022-05-29T09:39:11.735Z</time>
      </trkpt>
      <trkpt lat="42.39716" lon="18.73384">
        <ele>47.321643</ele>
        <time>2022-05-29T09:39:53.765Z</time>
      </trkpt>
      <trkpt lat="42.39908" lon="18.73212">
        <ele>46.236642</ele>
        <time>2022-05-29T09:40:33.738Z</time>
      </trkpt>
      <trkpt lat="42.40088" lon="18.73027">
        <ele>46.834328</ele>
        <time>2022-05-29T09:41:13.764Z</time>
      </trkpt>
      <trkpt lat="42.40248" lon="18.72842">
        <ele>48.22113</ele>
        <time>2022-05-29T09:41:55.748Z</time>
      </trkpt>
      <trkpt lat="42.40392" lon="18.72672">
        <ele>49.590671</ele>
        <time>2022-05-29T09:42:35.728Z</time>
      </trkpt>
      <trkpt lat="42.40542" lon="18.72496">
        <ele>49.118628</ele>
        <time>2022-05-29T09:43:15.748Z</time>
      </trkpt>
      <trkpt lat="42.40713" lon="18.723">
        <ele>48.678353</ele>
        <time>2022-05-29T09:43:57.743Z</time>
      </trkpt>
      <trkpt lat="42.40888" lon="18.72137">
        <ele>47.535729</ele>
        <time>2022-05-29T09:44:37.766Z</time>
      </trkpt>
      <trkpt lat="42.41074" lon="18.72004">
        <ele>46.673474</ele>
        <time>2022-05-29T09:45:17.751Z</time>
      </trkpt>
      <trkpt lat="42.41264" lon="18.71903">
        <ele>45.994828</ele>
        <time>2022-05-29T09:45:57.752Z</time>
      </trkpt>
      <trkpt lat="42.41475" lon="18.71824">
        <ele>46.956544</ele>
        <time>2022-05-29T09:46:43.743Z</time>
      </trkpt>
      <trkpt lat="42.41676" lon="18.71762">
        <ele>52.229027</ele>
        <time>2022-05-29T09:47:43.735Z</time>
      </trkpt>
      <trkpt lat="42.41866" lon="18.71669">
        <ele>58.654214</ele>
        <time>2022-05-29T09:48:51.737Z</time>
      </trkpt>
      <trkpt lat="42.4205" lon="18.71494">
        <ele>67.538757</ele>
        <time>2022-05-29T09:49:55.758Z</time>
      </trkpt>
      <trkpt lat="42.42171" lon="18.71298">
        <ele>63.043346</ele>
        <time>2022-05-29T09:50:35.732Z</time>
      </trkpt>
      <trkpt lat="42.42265" lon="18.71056">
        <ele>61.312777</ele>
        <time>2022-05-29T09:51:18.760Z</time>
      </trkpt>
      <trkpt lat="42.42383" lon="18.70752">
        <ele>54.509673</ele>
        <time>2022-05-29T09:52:00.746Z</time>
      </trkpt>
      <trkpt lat="42.42534" lon="18.70479">
        <ele>50.195303</ele>
        <time>2022-05-29T09:52:42.719Z</time>
      </trkpt>
      <trkpt lat="42.4262" lon="18.70235">
        <ele>49.099084</ele>
        <time>2022-05-29T09:53:35.738Z</time>
      </trkpt>
      <trkpt lat="42.42736" lon="18.70167">
        <ele>46.358431</ele>
        <time>2022-05-29T09:54:29.731Z</time>
      </trkpt>
      <trkpt lat="42.42924" lon="18.70074">
        <ele>48.08309</ele>
        <time>2022-05-29T09:55:36.727Z</time>
      </trkpt>
      <trkpt lat="42.42921" lon="18.69786">
        <ele>58.425012</ele>
        <time>2022-05-29T09:56:38.728Z</time>
      </trkpt>
      <trkpt lat="42.42942" lon="18.69583">
        <ele>48.616338</ele>
        <time>2022-05-29T09:58:59.730Z</time>
      </trkpt>
      <trkpt lat="42.43133" lon="18.69473">
        <ele>50.208038</ele>
        <time>2022-05-29T10:00:46.759Z</time>
      </trkpt>
      <trkpt lat="42.4328" lon="18.69383">
        <ele>53.15533</ele>
        <time>2022-05-29T10:25:10.735Z</time>
      </trkpt>
      <trkpt lat="42.43395" lon="18.69312">
        <ele>57.911277</ele>
        <time>2022-05-29T10:26:31.731Z</time>
      </trkpt>
      <trkpt lat="42.43611" lon="18.69264">
        <ele>54.558737</ele>
        <time>2022-05-29T10:27:44.724Z</time>
      </trkpt>
      <trkpt lat="42.43778" lon="18.69217">
        <ele>48.072748</ele>
        <time>2022-05-29T10:28:53.721Z</time>
      </trkpt>
      <trkpt lat="42.43916" lon="18.69025">
        <ele>49.217401</ele>
        <time>2022-05-29T10:29:56.717Z</time>
      </trkpt>
      <trkpt lat="42.43976" lon="18.68751">
        <ele>48.992348</ele>
        <time>2022-05-29T10:31:04.714Z</time>
      </trkpt>
      <trkpt lat="42.44171" lon="18.68709">
        <ele>47.853527</ele>
        <time>2022-05-29T10:32:14.730Z</time>
      </trkpt>
      <trkpt lat="42.44377" lon="18.68686">
        <ele>49.228634</ele>
        <time>2022-05-29T10:33:30.721Z</time>
      </trkpt>
      <trkpt lat="42.44582" lon="18.68698">
        <ele>47.623213</ele>
        <time>2022-05-29T10:34:32.740Z</time>
      </trkpt>
      <trkpt lat="42.44795" lon="18.68666">
        <ele>48.965594</ele>
        <time>2022-05-29T10:35:43.721Z</time>
      </trkpt>
      <trkpt lat="42.4498" lon="18.6856">
        <ele>47.577298</ele>
        <time>2022-05-29T10:36:50.727Z</time>
      </trkpt>
      <trkpt lat="42.45164" lon="18.68478">
        <ele>49.073004</ele>
        <time>2022-05-29T10:37:31.727Z</time>
      </trkpt>
      <trkpt lat="42.45376" lon="18.68401">
        <ele>47.52759</ele>
        <time>2022-05-29T10:38:13.747Z</time>
      </trkpt>
      <trkpt lat="42.4553" lon="18.68234">
        <ele>44.576416</ele>
        <time>2022-05-29T10:38:54.765Z</time>
      </trkpt>
      <trkpt lat="42.45706" lon="18.68189">
        <ele>46.191497</ele>
        <time>2022-05-29T10:39:34.752Z</time>
      </trkpt>
      <trkpt lat="42.45922" lon="18.6818">
        <ele>48.681345</ele>
        <time>2022-05-29T10:40:19.712Z</time>
      </trkpt>
      <trkpt lat="42.46101" lon="18.68351">
        <ele>47.688534</ele>
        <time>2022-05-29T10:41:00.743Z</time>
      </trkpt>
      <trkpt lat="42.46292" lon="18.68321">
        <ele>45.787136</ele>
        <time>2022-05-29T10:41:45.751Z</time>
      </trkpt>
      <trkpt lat="42.46468" lon="18.68439">
        <ele>44.461971</ele>
        <time>2022-05-29T10:42:25.748Z</time>
      </trkpt>
      <trkpt lat="42.46618" lon="18.68648">
        <ele>46.497383</ele>
        <time>2022-05-29T10:43:14.723Z</time>
      </trkpt>
      <trkpt lat="42.46807" lon="18.68554">
        <ele>46.275644</ele>
        <time>2022-05-29T10:44:10.761Z</time>
      </trkpt>
      <trkpt lat="42.47028" lon="18.68677">
        <ele>45.102034</ele>
        <time>2022-05-29T10:45:07.746Z</time>
      </trkpt>
      <trkpt lat="42.47266" lon="18.68658">
        <ele>47.971663</ele>
        <time>2022-05-29T10:46:03.737Z</time>
      </trkpt>
      <trkpt lat="42.47448" lon="18.68773">
        <ele>50.367629</ele>
        <time>2022-05-29T10:47:08.745Z</time>
      </trkpt>
      <trkpt lat="42.47606" lon="18.68944">
        <ele>53.353278</ele>
        <time>2022-05-29T10:48:18.730Z</time>
      </trkpt>
      <trkpt lat="42.47714" lon="18.69149">
        <ele>55.251455</ele>
        <time>2022-05-29T10:49:40.759Z</time>
      </trkpt>
      <trkpt lat="42.47642" lon="18.69444">
        <ele>59.002089</ele>
        <time>2022-05-29T10:50:36.740Z</time>
      </trkpt>
      <trkpt lat="42.47571" lon="18.69727">
        <ele>54.848696</ele>
        <time>2022-05-29T10:51:30.726Z</time>
      </trkpt>
      <trkpt lat="42.47475" lon="18.69992">
        <ele>49.14913</ele>
        <time>2022-05-29T10:52:15.723Z</time>
      </trkpt>
      <trkpt lat="42.47355" lon="18.70232">
        <ele>49.583714</ele>
        <time>2022-05-29T10:53:18.716Z</time>
      </trkpt>
      <trkpt lat="42.47229" lon="18.70472">
        <ele>47.470288</ele>
        <time>2022-05-29T10:54:15.743Z</time>
      </trkpt>
      <trkpt lat="42.47209" lon="18.70774">
        <ele>49.682685</ele>
        <time>2022-05-29T10:55:13.737Z</time>
      </trkpt>
      <trkpt lat="42.47242" lon="18.71088">
        <ele>46.853883</ele>
        <time>2022-05-29T10:56:16.758Z</time>
      </trkpt>
      <trkpt lat="42.47231" lon="18.71392">
        <ele>48.369759</ele>
        <time>2022-05-29T10:57:11.735Z</time>
      </trkpt>
      <trkpt lat="42.47052" lon="18.71588">
        <ele>49.096599</ele>
        <time>2022-05-29T10:58:08.741Z</time>
      </trkpt>
      <trkpt lat="42.47012" lon="18.71875">
        <ele>47.077548</ele>
        <time>2022-05-29T10:58:58.737Z</time>
      </trkpt>
      <trkpt lat="42.46937" lon="18.72152">
        <ele>49.687015</ele>
        <time>2022-05-29T10:59:50.738Z</time>
      </trkpt>
      <trkpt lat="42.46874" lon="18.72421">
        <ele>52.733519</ele>
        <time>2022-05-29T11:00:52.735Z</time>
      </trkpt>
      <trkpt lat="42.46741" lon="18.72687">
        <ele>51.430338</ele>
        <time>2022-05-29T11:01:49.748Z</time>
      </trkpt>
      <trkpt lat="42.46613" lon="18.72969">
        <ele>48.126343</ele>
        <time>2022-05-29T11:02:42.732Z</time>
      </trkpt>
      <trkpt lat="42.46525" lon="18.73244">
        <ele>49.394398</ele>
        <time>2022-05-29T11:03:36.735Z</time>
      </trkpt>
      <trkpt lat="42.4642" lon="18.73508">
        <ele>49.819139</ele>
        <time>2022-05-29T11:04:39.743Z</time>
      </trkpt>
      <trkpt lat="42.46235" lon="18.73711">
        <ele>46.305167</ele>
        <time>2022-05-29T11:05:34.772Z</time>
      </trkpt>
      <trkpt lat="42.46057" lon="18.73878">
        <ele>50.361769</ele>
        <time>2022-05-29T11:09:14.739Z</time>
      </trkpt>
      <trkpt lat="42.45925" lon="18.74088">
        <ele>47.547484</ele>
        <time>2022-05-29T11:10:14.756Z</time>
      </trkpt>
      <trkpt lat="42.45743" lon="18.74291">
        <ele>46.457227</ele>
        <time>2022-05-29T11:11:14.741Z</time>
      </trkpt>
      <trkpt lat="42.4562" lon="18.74558">
        <ele>46.305794</ele>
        <time>2022-05-29T11:12:10.740Z</time>
      </trkpt>
      <trkpt lat="42.4549" lon="18.7476">
        <ele>44.79845</ele>
        <time>2022-05-29T11:13:13.745Z</time>
      </trkpt>
      <trkpt lat="42.45294" lon="18.7488">
        <ele>50.752351</ele>
        <time>2022-05-29T11:14:29.722Z</time>
      </trkpt>
      <trkpt lat="42.45227" lon="18.7495">
        <ele>48.523876</ele>
        <time>2022-05-29T11:16:23.736Z</time>
      </trkpt>
      <trkpt lat="42.45032" lon="18.7507">
        <ele>44.493151</ele>
        <time>2022-05-29T11:17:20.740Z</time>
      </trkpt>
      <trkpt lat="42.4493" lon="18.75338">
        <ele>38.614491</ele>
        <time>2022-05-29T11:18:21.734Z</time>
      </trkpt>
      <trkpt lat="42.4473" lon="18.75442">
        <ele>38.452953</ele>
        <time>2022-05-29T11:19:24.742Z</time>
      </trkpt>
      <trkpt lat="42.44561" lon="18.75277">
        <ele>43.542041</ele>
        <time>2022-05-29T11:20:24.779Z</time>
      </trkpt>
      <trkpt lat="42.44365" lon="18.75281">
        <ele>42.923654</ele>
        <time>2022-05-29T11:21:24.751Z</time>
      </trkpt>
      <trkpt lat="42.44209" lon="18.75462">
        <ele>44.880569</ele>
        <time>2022-05-29T11:22:36.764Z</time>
      </trkpt>
      <trkpt lat="42.44015" lon="18.75372">
        <ele>47.460238</ele>
        <time>2022-05-29T11:23:26.745Z</time>
      </trkpt>
      <trkpt lat="42.43834" lon="18.75463">
        <ele>42.359976</ele>
        <time>2022-05-29T11:24:13.778Z</time>
      </trkpt>
      <trkpt lat="42.43632" lon="18.75615">
        <ele>37.283785</ele>
        <time>2022-05-29T11:25:05.798Z</time>
      </trkpt>
      <trkpt lat="42.43426" lon="18.75725">
        <ele>39.313918</ele>
        <time>2022-05-29T11:25:57.761Z</time>
      </trkpt>
      <trkpt lat="42.43224" lon="18.75773">
        <ele>45.629046</ele>
        <time>2022-05-29T11:26:57.742Z</time>
      </trkpt>
      <trkpt lat="42.42988" lon="18.75829">
        <ele>46.012396</ele>
        <time>2022-05-29T11:27:59.757Z</time>
      </trkpt>
      <trkpt lat="42.42766" lon="18.75869">
        <ele>46.09782</ele>
        <time>2022-05-29T11:28:59.742Z</time>
      </trkpt>
      <trkpt lat="42.42551" lon="18.75936">
        <ele>42.847593</ele>
        <time>2022-05-29T11:29:59.742Z</time>
      </trkpt>
      <trkpt lat="42.42374" lon="18.76085">
        <ele>36.016532</ele>
        <time>2022-05-29T11:30:54.739Z</time>
      </trkpt>
      <trkpt lat="42.42188" lon="18.7626">
        <ele>36.097149</ele>
        <time>2022-05-29T11:31:52.712Z</time>
      </trkpt>
      <trkpt lat="42.42138" lon="18.7655">
        <ele>38.753837</ele>
        <time>2022-05-29T11:32:47.741Z</time>
      </trkpt>
      <trkpt lat="42.42156" lon="18.76875">
        <ele>43.470629</ele>
        <time>2022-05-29T11:33:46.733Z</time>
      </trkpt>
      <trkpt lat="42.42248" lon="18.7713">
        <ele>41.780088</ele>
        <time>2022-05-29T11:34:42.731Z</time>
      </trkpt>
      <trkpt lat="42.4242" lon="18.76991">
        <ele>37.756912</ele>
        <time>2022-05-29T11:35:34.734Z</time>
      </trkpt>
      <trkpt lat="42.42586" lon="18.76849">
        <ele>39.631883</ele>
        <time>2022-05-29T11:36:40.727Z</time>
      </trkpt>
      <trkpt lat="42.42761" lon="18.76963">
        <ele>39.135377</ele>
        <time>2022-05-29T11:37:42.738Z</time>
      </trkpt>
      <trkpt lat="42.42718" lon="18.77256">
        <ele>41.330757</ele>
        <time>2022-05-29T11:38:50.731Z</time>
      </trkpt>
      <trkpt lat="42.42805" lon="18.77206">
        <ele>41.330757</ele>
        <time>2022-05-29T11:41:00.722Z</time>
      </trkpt>
    </trkseg>
  </trk>
</gpx>